createdAt,value
2023-11-12T00:00:22.968Z,55.60
2023-11-12T00:02:50.928Z,55.60
2023-11-12T00:05:20.960Z,55.60
2023-11-12T00:07:49.087Z,55.60
2023-11-12T00:10:17.570Z,55.60
2023-11-12T00:12:49.457Z,55.60
2023-11-12T00:15:17.733Z,56.30
2023-11-12T00:17:45.829Z,55.60
2023-11-12T00:20:14.834Z,55.60
2023-11-12T00:22:45.277Z,55.60
2023-11-12T00:25:14.277Z,55.60
2023-11-12T00:27:42.730Z,55.60
2023-11-12T00:30:12.787Z,55.60
2023-11-12T00:32:40.937Z,55.60
2023-11-12T00:35:10.989Z,55.60
2023-11-12T00:37:39.085Z,55.60
2023-11-12T00:40:08.228Z,55.60
2023-11-12T00:42:36.193Z,55.60
2023-11-12T00:45:05.880Z,55.60
2023-11-12T00:47:35.227Z,55.60
2023-11-12T00:50:04.045Z,55.60
2023-11-12T00:52:32.010Z,55.60
2023-11-12T00:54:59.913Z,55.60
2023-11-12T00:57:27.808Z,55.60
2023-11-12T00:59:55.791Z,55.60
2023-11-12T01:02:23.736Z,55.60
2023-11-12T01:04:53.478Z,55.60
2023-11-12T01:07:21.475Z,55.60
2023-11-12T01:09:50.833Z,56.30
2023-11-12T01:12:20.437Z,55.60
2023-11-12T01:14:48.941Z,55.60
2023-11-12T01:17:16.996Z,55.60
2023-11-12T01:19:45.288Z,55.60
2023-11-12T01:22:14.625Z,55.60
2023-11-12T01:24:42.625Z,55.60
2023-11-12T01:27:10.831Z,55.60
2023-11-12T01:29:38.829Z,55.60
2023-11-12T01:32:07.587Z,55.60
2023-11-12T01:34:35.550Z,55.60
2023-11-12T01:37:03.561Z,55.60
2023-11-12T01:39:32.960Z,55.60
2023-11-12T01:42:00.905Z,55.60
2023-11-12T01:44:29.774Z,55.60
2023-11-12T01:46:57.772Z,55.60
2023-11-12T01:49:25.831Z,55.60
2023-11-12T01:51:54.079Z,55.60
2023-11-12T01:54:22.270Z,55.60
2023-11-12T01:56:56.241Z,55.60
2023-11-12T01:59:24.816Z,55.60
2023-11-12T02:01:52.971Z,55.60
2023-11-12T02:04:22.613Z,55.60
2023-11-12T02:06:50.744Z,55.60
2023-11-12T02:09:19.439Z,55.60
2023-11-12T02:11:47.866Z,55.60
2023-11-12T02:14:18.295Z,55.60
2023-11-12T02:16:47.403Z,55.60
2023-11-12T02:19:25.306Z,55.60
2023-11-12T02:21:54.096Z,55.60
2023-11-12T02:24:25.085Z,55.60
2023-11-12T02:26:53.429Z,55.60
2023-11-12T02:29:22.969Z,55.60
2023-11-12T02:31:51.493Z,55.60
2023-11-12T02:34:19.781Z,55.60
2023-11-12T02:36:47.691Z,55.60
2023-11-12T02:39:17.584Z,55.60
2023-11-12T02:41:46.892Z,55.60
2023-11-12T02:44:15.962Z,55.60
2023-11-12T02:46:43.924Z,55.60
2023-11-12T02:49:32.753Z,55.60
2023-11-12T02:52:00.649Z,55.60
2023-11-12T02:54:28.687Z,55.60
2023-11-12T02:56:58.342Z,55.60
2023-11-12T02:59:26.286Z,55.60
2023-11-12T03:01:54.198Z,55.60
2023-11-12T03:04:22.202Z,55.60
2023-11-12T03:06:50.287Z,55.60
2023-11-12T03:09:18.369Z,55.60
2023-11-12T03:11:47.212Z,55.60
2023-11-12T03:14:18.754Z,55.60
2023-11-12T03:16:49.314Z,55.60
2023-11-12T03:19:17.793Z,55.60
2023-11-12T03:21:50.257Z,55.60
2023-11-12T03:24:18.231Z,55.60
2023-11-12T03:26:46.163Z,55.60
2023-11-12T03:29:14.132Z,55.60
2023-11-12T03:31:45.699Z,55.60
2023-11-12T03:34:13.664Z,55.60
2023-11-12T03:36:41.694Z,55.60
2023-11-12T03:39:10.081Z,55.60
2023-11-12T03:41:38.029Z,55.60
2023-11-12T03:44:06.803Z,56.30
2023-11-12T03:46:35.480Z,55.60
2023-11-12T03:49:05.960Z,55.60
2023-11-12T03:51:34.185Z,55.60
2023-11-12T03:54:03.234Z,55.60
2023-11-12T03:56:32.038Z,55.60
2023-11-12T03:59:00.294Z,55.60
2023-11-12T04:01:28.401Z,55.60
2023-11-12T04:03:56.467Z,55.60
2023-11-12T04:06:25.795Z,55.60
2023-11-12T04:08:53.753Z,55.60
2023-11-12T04:11:22.190Z,55.60
2023-11-12T04:13:50.188Z,55.60
2023-11-12T04:16:18.092Z,55.60
2023-11-12T04:18:47.063Z,55.60
2023-11-12T04:21:15.172Z,55.60
2023-11-12T04:23:45.486Z,55.60
2023-11-12T04:26:13.516Z,55.60
2023-11-12T04:28:41.467Z,55.60
2023-11-12T04:31:09.430Z,55.60
2023-11-12T04:33:37.495Z,55.60
2023-11-12T04:36:06.025Z,55.60
2023-11-12T04:38:34.015Z,55.60
2023-11-12T04:41:03.264Z,55.60
2023-11-12T04:43:31.201Z,55.50
2023-11-12T04:45:59.204Z,55.60
2023-11-12T04:48:27.268Z,55.50
2023-11-12T04:50:55.235Z,55.50
2023-11-12T04:53:23.179Z,55.60
2023-11-12T04:55:51.077Z,55.50
2023-11-12T04:58:20.336Z,55.50
2023-11-12T05:00:48.356Z,55.50
2023-11-12T05:03:16.752Z,55.50
2023-11-12T05:05:44.751Z,55.50
2023-11-12T05:08:12.665Z,55.50
2023-11-12T05:10:45.172Z,55.50
2023-11-12T05:13:14.294Z,55.50
2023-11-12T05:15:43.963Z,55.50
2023-11-12T05:18:12.097Z,55.50
2023-11-12T05:20:40.227Z,55.50
2023-11-12T05:23:08.591Z,55.50
2023-11-12T05:25:36.635Z,55.50
2023-11-12T05:28:07.021Z,55.50
2023-11-12T05:30:35.644Z,55.50
2023-11-12T05:33:05.257Z,55.40
2023-11-12T05:35:33.242Z,55.50
2023-11-12T05:38:01.197Z,55.50
2023-11-12T05:40:30.370Z,55.50
2023-11-12T05:42:58.916Z,55.50
2023-11-12T05:45:27.031Z,55.50
2023-11-12T05:47:55.124Z,55.50
2023-11-12T05:50:25.093Z,55.50
2023-11-12T05:52:53.942Z,55.50
2023-11-12T05:55:22.018Z,55.50
2023-11-12T05:57:50.068Z,55.50
2023-11-12T06:00:18.716Z,55.40
2023-11-12T06:02:46.820Z,55.50
2023-11-12T06:05:14.793Z,55.50
2023-11-12T06:07:44.049Z,55.50
2023-11-12T06:10:12.801Z,55.40
2023-11-12T06:12:40.767Z,55.40
2023-11-12T06:15:10.801Z,55.50
2023-11-12T06:17:39.057Z,55.40
2023-11-12T06:20:08.936Z,56.00
2023-11-12T06:22:36.998Z,55.50
2023-11-12T06:25:12.633Z,55.40
2023-11-12T06:27:40.784Z,55.50
2023-11-12T06:30:11.289Z,55.40
2023-11-12T06:32:39.388Z,55.40
2023-11-12T06:35:08.517Z,55.40
2023-11-12T06:37:36.464Z,55.40
2023-11-12T06:40:07.878Z,55.40
2023-11-12T06:42:35.846Z,55.30
2023-11-12T06:45:03.901Z,55.40
2023-11-12T06:47:31.815Z,55.30
2023-11-12T06:49:59.781Z,55.30
2023-11-12T06:52:27.677Z,55.30
2023-11-12T06:54:55.616Z,55.40
2023-11-12T06:57:24.912Z,55.30
2023-11-12T06:59:52.814Z,55.30
2023-11-12T07:02:20.818Z,55.40
2023-11-12T07:04:49.409Z,55.40
2023-11-12T07:07:17.620Z,55.30
2023-11-12T07:09:47.428Z,55.30
2023-11-12T07:12:16.470Z,55.30
2023-11-12T07:14:46.068Z,55.30
2023-11-12T07:17:14.002Z,55.30
2023-11-12T07:19:42.928Z,55.40
2023-11-12T07:22:11.361Z,55.30
2023-11-12T07:24:39.597Z,55.30
2023-11-12T07:27:08.066Z,55.40
2023-11-12T07:29:36.351Z,55.30
2023-11-12T07:32:06.261Z,55.30
2023-11-12T07:34:34.254Z,55.30
2023-11-12T07:37:02.190Z,55.30
2023-11-12T07:39:30.759Z,55.30
2023-11-12T07:41:58.747Z,55.30
2023-11-12T07:44:26.661Z,55.30
2023-11-12T07:46:54.808Z,55.30
2023-11-12T07:49:24.785Z,55.30
2023-11-12T07:51:53.073Z,56.00
2023-11-12T07:54:21.091Z,55.30
2023-11-12T07:56:49.124Z,55.30
2023-11-12T07:59:17.218Z,55.30
2023-11-12T08:01:45.098Z,55.30
2023-11-12T08:04:14.253Z,55.30
2023-11-12T08:06:47.439Z,55.30
2023-11-12T08:09:15.483Z,55.30
2023-11-12T08:11:43.537Z,55.30
2023-11-12T08:14:11.511Z,55.30
2023-11-12T08:16:39.559Z,55.40
2023-11-12T08:19:08.061Z,55.30
2023-11-12T08:21:36.082Z,55.30
2023-11-12T08:24:06.798Z,55.30
2023-11-12T08:26:39.732Z,55.30
2023-11-12T08:29:08.727Z,55.40
2023-11-12T08:31:37.321Z,55.40
2023-11-12T08:34:05.693Z,55.30
2023-11-12T08:36:33.741Z,55.30
2023-11-12T08:39:05.101Z,55.30
2023-11-12T08:41:34.599Z,55.30
2023-11-12T08:44:02.525Z,55.30
2023-11-12T08:46:30.506Z,55.30
2023-11-12T08:48:58.534Z,55.30
2023-11-12T08:51:26.510Z,55.40
2023-11-12T08:53:54.442Z,55.40
2023-11-12T08:56:22.340Z,55.40
2023-11-12T08:58:51.735Z,55.40
2023-11-12T09:01:19.974Z,55.40
2023-11-12T09:03:47.971Z,55.40
2023-11-12T09:06:16.070Z,55.40
2023-11-12T09:08:44.415Z,55.40
2023-11-12T09:11:15.214Z,55.40
2023-11-12T09:13:43.580Z,55.40
2023-11-12T09:16:14.176Z,55.40
2023-11-12T09:18:42.243Z,55.40
2023-11-12T09:21:10.813Z,55.40
2023-11-12T09:23:39.865Z,55.40
2023-11-12T09:26:07.997Z,55.40
2023-11-12T09:28:35.986Z,55.40
2023-11-12T09:31:06.350Z,55.40
2023-11-12T09:33:35.824Z,55.40
2023-11-12T09:36:04.025Z,55.40
2023-11-12T09:38:31.963Z,55.40
2023-11-12T09:41:01.086Z,55.40
2023-11-12T09:43:30.821Z,55.40
2023-11-12T09:45:59.392Z,55.40
2023-11-12T09:48:33.859Z,55.40
2023-11-12T09:51:04.451Z,55.40
2023-11-12T09:53:35.196Z,55.40
2023-11-12T09:56:10.368Z,55.40
2023-11-12T09:58:39.330Z,55.40
2023-11-12T10:01:08.508Z,55.40
2023-11-12T10:03:36.996Z,55.40
2023-11-12T10:06:07.996Z,55.40
2023-11-12T10:08:36.720Z,55.40
2023-11-12T10:11:18.773Z,55.40
2023-11-12T10:13:47.284Z,56.00
2023-11-12T10:16:24.392Z,55.40
2023-11-12T10:18:53.038Z,55.40
2023-11-12T10:21:22.422Z,55.40
2023-11-12T10:24:06.509Z,55.40
2023-11-12T10:26:36.953Z,55.40
2023-11-12T10:29:07.344Z,55.40
2023-11-12T10:31:38.696Z,55.40
2023-11-12T10:34:06.915Z,55.40
2023-11-12T10:36:36.526Z,55.40
2023-11-12T10:39:06.521Z,55.40
2023-11-12T10:41:36.848Z,55.40
2023-11-12T10:44:05.432Z,55.40
2023-11-12T10:46:36.317Z,55.40
2023-11-12T10:49:05.872Z,55.40
2023-11-12T10:51:34.988Z,55.40
2023-11-12T10:54:05.935Z,55.40
2023-11-12T10:56:34.017Z,55.40
2023-11-12T10:59:02.024Z,55.40
2023-11-12T11:01:30.618Z,55.50
2023-11-12T11:03:58.677Z,55.40
2023-11-12T11:06:28.190Z,55.40
2023-11-12T11:08:57.052Z,55.40
2023-11-12T11:11:27.310Z,55.40
2023-11-12T11:13:55.287Z,55.40
2023-11-12T11:16:47.568Z,55.50
2023-11-12T11:19:15.674Z,55.50
2023-11-12T11:21:43.828Z,55.50
2023-11-12T11:24:31.773Z,55.50
2023-11-12T11:27:10.838Z,55.50
2023-11-12T11:29:42.651Z,55.50
2023-11-12T11:32:19.574Z,55.50
2023-11-12T11:34:49.332Z,55.50
2023-11-12T11:37:18.974Z,55.50
2023-11-12T11:39:46.974Z,55.50
2023-11-12T11:42:22.345Z,55.50
2023-11-12T11:44:55.723Z,55.50
2023-11-12T11:47:27.412Z,55.50
2023-11-12T11:50:25.125Z,55.50
2023-11-12T11:53:14.296Z,55.50
2023-11-12T11:55:47.982Z,55.50
2023-11-12T11:58:17.441Z,55.50
2023-11-12T12:01:00.128Z,55.40
2023-11-12T12:03:29.848Z,55.50
2023-11-12T12:05:58.258Z,55.50
2023-11-12T12:08:26.688Z,55.50
2023-11-12T12:10:54.641Z,55.50
2023-11-12T12:13:24.427Z,55.50
2023-11-12T12:15:52.672Z,55.50
2023-11-12T12:18:24.655Z,55.50
2023-11-12T12:20:54.893Z,55.50
2023-11-12T12:23:23.320Z,55.50
2023-11-12T12:25:52.464Z,55.40
2023-11-12T12:28:27.503Z,55.50
2023-11-12T12:30:55.532Z,55.50
2023-11-12T12:33:24.055Z,55.40
2023-11-12T12:35:52.177Z,55.50
2023-11-12T12:38:20.058Z,55.50
2023-11-12T12:40:51.911Z,55.50
2023-11-12T12:43:20.875Z,55.50
2023-11-12T12:45:58.737Z,55.50
2023-11-12T12:48:27.091Z,55.50
2023-11-12T12:51:04.128Z,55.50
2023-11-12T12:53:32.013Z,55.60
2023-11-12T12:56:00.596Z,55.60
2023-11-12T12:58:38.407Z,55.60
2023-11-12T13:01:11.980Z,55.50
2023-11-12T13:03:42.444Z,55.50
2023-11-12T13:06:11.636Z,55.50
2023-11-12T13:08:42.065Z,55.50
2023-11-12T13:11:11.223Z,55.50
2023-11-12T13:13:39.385Z,55.50
2023-11-12T13:16:11.764Z,55.50
2023-11-12T13:18:42.131Z,55.50
2023-11-12T13:21:11.287Z,55.50
2023-11-12T13:23:40.262Z,55.60
2023-11-12T13:26:08.210Z,55.60
2023-11-12T13:28:37.298Z,55.50
2023-11-12T13:31:06.000Z,55.50
2023-11-12T13:33:35.530Z,55.60
2023-11-12T13:36:04.015Z,56.10
2023-11-12T13:38:34.801Z,55.50
2023-11-12T13:41:03.097Z,55.50
2023-11-12T13:43:33.367Z,55.50
2023-11-12T13:46:01.468Z,55.50
2023-11-12T13:48:29.555Z,55.50
2023-11-12T13:50:59.993Z,55.50
2023-11-12T13:53:28.907Z,55.50
2023-11-12T13:55:59.490Z,55.50
2023-11-12T13:58:29.493Z,55.60
2023-11-12T14:00:57.892Z,55.50
2023-11-12T14:03:27.310Z,55.50
2023-11-12T14:05:55.451Z,55.50
2023-11-12T14:08:24.686Z,55.50
2023-11-12T14:10:52.605Z,55.60
2023-11-12T14:13:20.505Z,55.50
2023-11-12T14:15:50.171Z,55.50
2023-11-12T14:18:18.508Z,55.50
2023-11-12T14:20:46.881Z,55.60
2023-11-12T14:23:14.860Z,55.50
2023-11-12T14:25:44.454Z,55.50
2023-11-12T14:28:12.468Z,55.50
2023-11-12T14:30:41.475Z,55.50
2023-11-12T14:33:10.588Z,55.50
2023-11-12T14:35:38.565Z,55.50
2023-11-12T14:38:06.509Z,55.60
2023-11-12T14:40:34.414Z,55.50
2023-11-12T14:43:08.043Z,55.50
2023-11-12T14:45:37.670Z,55.50
2023-11-12T14:48:05.924Z,55.50
2023-11-12T14:50:33.896Z,55.50
2023-11-12T14:53:01.827Z,55.60
2023-11-12T14:55:29.804Z,55.50
2023-11-12T14:57:59.344Z,55.50
2023-11-12T15:00:34.366Z,55.50
2023-11-12T15:03:05.987Z,55.50
2023-11-12T15:05:34.590Z,55.60
2023-11-12T15:08:02.596Z,55.60
2023-11-12T15:10:31.305Z,55.60
2023-11-12T15:12:59.471Z,55.60
2023-11-12T15:15:28.959Z,55.50
2023-11-12T15:17:57.734Z,55.60
2023-11-12T15:20:27.296Z,55.50
2023-11-12T15:22:55.260Z,55.60
2023-11-12T15:25:23.300Z,55.60
2023-11-12T15:27:51.868Z,55.60
2023-11-12T15:30:20.885Z,55.60
2023-11-12T15:32:50.493Z,55.60
2023-11-12T15:35:19.513Z,55.60
2023-11-12T15:37:47.613Z,55.60
2023-11-12T15:40:19.071Z,56.20
2023-11-12T15:42:49.517Z,55.60
2023-11-12T15:45:18.297Z,55.60
2023-11-12T15:47:47.938Z,55.60
2023-11-12T15:50:18.266Z,55.60
2023-11-12T15:52:47.403Z,55.60
2023-11-12T15:55:16.455Z,55.60
2023-11-12T15:57:45.337Z,55.60
2023-11-12T16:00:15.732Z,55.60
2023-11-12T16:02:45.426Z,55.60
2023-11-12T16:05:14.468Z,55.60
2023-11-12T16:07:45.269Z,55.60
2023-11-12T16:10:15.533Z,55.60
2023-11-12T16:12:43.666Z,55.60
2023-11-12T16:15:14.120Z,55.60
2023-11-12T16:17:43.384Z,55.60
2023-11-12T16:20:13.273Z,55.60
2023-11-12T16:22:45.566Z,55.60
2023-11-12T16:25:13.792Z,55.60
2023-11-12T16:27:42.086Z,55.60
2023-11-12T16:30:12.257Z,55.60
2023-11-12T16:32:40.288Z,55.60
2023-11-12T16:35:11.667Z,55.60
2023-11-12T16:37:46.285Z,55.60
2023-11-12T16:40:16.886Z,55.60
2023-11-12T16:42:46.514Z,55.60
2023-11-12T16:45:14.761Z,55.60
2023-11-12T16:47:42.962Z,55.60
2023-11-12T16:50:14.669Z,55.60
2023-11-12T16:52:42.976Z,55.60
2023-11-12T16:55:11.442Z,55.60
2023-11-12T16:57:41.052Z,55.60
2023-11-12T17:00:09.697Z,55.60
2023-11-12T17:02:37.880Z,55.60
2023-11-12T17:05:06.793Z,55.60
2023-11-12T17:07:35.229Z,55.60
2023-11-12T17:10:04.731Z,55.60
2023-11-12T17:12:33.740Z,55.60
2023-11-12T17:15:04.841Z,55.60
2023-11-12T17:17:33.094Z,55.60
2023-11-12T17:20:01.728Z,55.60
2023-11-12T17:22:30.287Z,55.60
2023-11-12T17:24:59.825Z,55.60
2023-11-12T17:27:29.247Z,55.60
2023-11-12T17:29:57.140Z,55.60
2023-11-12T17:32:26.567Z,55.60
2023-11-12T17:34:55.295Z,55.60
2023-11-12T17:37:23.212Z,55.60
2023-11-12T17:39:51.173Z,55.60
2023-11-12T17:42:19.154Z,55.60
2023-11-12T17:44:47.122Z,55.60
2023-11-12T17:47:15.276Z,55.60
2023-11-12T17:49:46.299Z,55.60
2023-11-12T17:52:14.223Z,55.60
2023-11-12T17:54:42.844Z,55.60
2023-11-12T17:57:10.990Z,55.60
2023-11-12T17:59:38.928Z,55.60
2023-11-12T18:02:10.771Z,55.60
2023-11-12T18:04:39.261Z,55.60
2023-11-12T18:07:08.685Z,55.60
2023-11-12T18:09:36.676Z,55.60
2023-11-12T18:12:04.892Z,55.60
2023-11-12T18:14:33.349Z,55.60
2023-11-12T18:17:02.438Z,55.60
2023-11-12T18:19:32.562Z,55.60
2023-11-12T18:22:01.295Z,55.60
2023-11-12T18:24:30.653Z,55.60
2023-11-12T18:26:58.565Z,55.60
2023-11-12T18:29:26.460Z,55.60
2023-11-12T18:31:57.253Z,55.60
2023-11-12T18:34:26.612Z,55.60
2023-11-12T18:36:54.895Z,55.60
2023-11-12T18:39:22.822Z,55.60
2023-11-12T18:41:52.059Z,55.60
2023-11-12T18:44:20.876Z,55.60
2023-11-12T18:46:49.459Z,55.60
2023-11-12T18:49:17.468Z,55.60
2023-11-12T18:51:45.746Z,55.60
2023-11-12T18:54:13.684Z,55.60
2023-11-12T18:56:41.572Z,55.60
2023-11-12T18:59:12.627Z,55.60
2023-11-12T19:01:42.493Z,55.60
2023-11-12T19:04:10.510Z,55.60
2023-11-12T19:06:39.372Z,55.60
2023-11-12T19:09:08.821Z,55.60
2023-11-12T19:11:37.237Z,55.60
2023-11-12T19:14:08.141Z,55.60
2023-11-12T19:16:50.078Z,55.60
2023-11-12T19:19:20.956Z,55.60
2023-11-12T19:21:49.109Z,55.60
2023-11-12T19:24:17.033Z,55.60
2023-11-12T19:26:44.941Z,55.60
2023-11-12T19:29:13.010Z,55.60
2023-11-12T19:31:42.345Z,55.60
2023-11-12T19:34:11.522Z,55.60
2023-11-12T19:36:40.800Z,55.60
2023-11-12T19:39:13.711Z,55.60
2023-11-12T19:41:43.139Z,55.60
2023-11-12T19:44:11.245Z,56.20
2023-11-12T19:46:43.728Z,55.60
2023-11-12T19:49:11.725Z,55.60
2023-11-12T19:51:40.074Z,55.60
2023-11-12T19:54:08.527Z,55.60
2023-11-12T19:56:40.424Z,55.60
2023-11-12T19:59:08.871Z,55.60
2023-11-12T20:01:37.062Z,55.60
2023-11-12T20:04:07.290Z,55.60
2023-11-12T20:06:36.284Z,55.60
2023-11-12T20:09:04.478Z,55.60
2023-11-12T20:11:32.851Z,55.60
2023-11-12T20:14:04.097Z,55.60
2023-11-12T20:16:34.651Z,55.60
2023-11-12T20:19:03.423Z,55.60
2023-11-12T20:21:33.967Z,55.60
2023-11-12T20:24:01.889Z,55.60
2023-11-12T20:26:29.858Z,55.60
2023-11-12T20:28:58.326Z,55.70
2023-11-12T20:31:26.872Z,55.70
2023-11-12T20:33:56.272Z,55.60
2023-11-12T20:36:24.264Z,55.60
2023-11-12T20:38:53.537Z,55.60
2023-11-12T20:41:21.752Z,55.70
2023-11-12T20:43:49.729Z,55.60
2023-11-12T20:46:19.827Z,55.60
2023-11-12T20:48:47.942Z,55.70
2023-11-12T20:51:16.108Z,55.60
2023-11-12T20:53:44.012Z,55.60
2023-11-12T20:56:14.483Z,55.70
2023-11-12T20:58:42.452Z,55.60
2023-11-12T21:01:11.099Z,55.60
2023-11-12T21:03:39.495Z,55.60
2023-11-12T21:06:08.761Z,55.60
2023-11-12T21:08:37.956Z,55.70
2023-11-12T21:11:08.200Z,55.60
2023-11-12T21:13:37.569Z,55.70
2023-11-12T21:16:06.317Z,55.70
2023-11-12T21:18:34.320Z,55.70
2023-11-12T21:21:02.252Z,55.70
2023-11-12T21:23:30.184Z,55.70
2023-11-12T21:25:58.107Z,55.70
2023-11-12T21:28:26.019Z,55.70
2023-11-12T21:30:56.517Z,55.70
2023-11-12T21:33:25.304Z,55.70
2023-11-12T21:35:55.321Z,55.70
2023-11-12T21:38:25.317Z,55.60
2023-11-12T21:40:53.217Z,55.70
2023-11-12T21:43:21.288Z,55.70
2023-11-12T21:45:50.108Z,55.70
2023-11-12T21:48:21.060Z,55.70
2023-11-12T21:50:49.220Z,55.70
2023-11-12T21:53:17.175Z,55.70
2023-11-12T21:55:45.254Z,55.70
2023-11-12T21:58:13.375Z,55.70
2023-11-12T22:00:41.593Z,55.70
2023-11-12T22:03:09.579Z,55.70
2023-11-12T22:05:38.887Z,55.70
2023-11-12T22:08:06.790Z,55.70
2023-11-12T22:10:34.773Z,55.70
2023-11-12T22:13:02.941Z,55.70
2023-11-12T22:15:31.096Z,55.70
2023-11-12T22:17:59.076Z,55.70
2023-11-12T22:20:28.937Z,55.70
2023-11-12T22:22:59.307Z,55.70
2023-11-12T22:25:31.229Z,55.70
2023-11-12T22:27:59.969Z,55.70
2023-11-12T22:30:27.942Z,55.70
2023-11-12T22:32:57.265Z,55.70
2023-11-12T22:35:25.494Z,55.70
2023-11-12T22:37:53.479Z,55.70
2023-11-12T22:40:24.410Z,55.70
2023-11-12T22:42:53.273Z,55.70
2023-11-12T22:45:23.540Z,55.70
2023-11-12T22:47:51.602Z,55.70
2023-11-12T22:50:22.025Z,55.70
2023-11-12T22:52:50.059Z,55.70
2023-11-12T22:55:19.934Z,55.70
2023-11-12T22:57:49.432Z,55.70
2023-11-12T23:00:42.434Z,55.70
2023-11-12T23:03:13.571Z,55.70
2023-11-12T23:05:41.978Z,55.70
2023-11-12T23:08:10.256Z,55.70
2023-11-12T23:10:39.185Z,55.70
2023-11-12T23:13:08.676Z,55.70
2023-11-12T23:15:36.725Z,55.70
2023-11-12T23:18:05.943Z,55.70
2023-11-12T23:20:34.849Z,55.70
2023-11-12T23:23:03.380Z,55.70
2023-11-12T23:25:31.777Z,55.70
2023-11-12T23:27:59.995Z,55.70
2023-11-12T23:30:29.833Z,55.70
2023-11-12T23:32:57.929Z,55.70
2023-11-12T23:35:27.333Z,55.70
2023-11-12T23:37:54.371Z,55.80
2023-11-12T23:40:22.415Z,55.70
2023-11-12T23:42:50.402Z,55.70
2023-11-12T23:45:18.569Z,55.70
2023-11-12T23:47:47.908Z,55.70
2023-11-12T23:50:16.015Z,55.70
2023-11-12T23:52:43.915Z,55.80
2023-11-12T23:55:11.937Z,55.70
2023-11-12T23:57:41.852Z,55.70
